createdAt,value
2019-03-25T00:01:49.652Z,6.80
2019-03-25T00:04:09.854Z,9.05
2019-03-25T00:06:29.647Z,6.40
2019-03-25T00:09:03.277Z,5.22
2019-03-25T00:11:11.583Z,4.70
2019-03-25T00:13:31.478Z,4.75
2019-03-25T00:15:51.342Z,5.05
2019-03-25T00:18:11.093Z,4.12
2019-03-25T00:20:30.869Z,4.62
2019-03-25T00:22:50.530Z,4.70
2019-03-25T00:25:10.324Z,4.35
2019-03-25T00:27:29.962Z,4.30
2019-03-25T00:29:49.756Z,3.70
2019-03-25T00:32:09.619Z,4.80
2019-03-25T00:34:29.461Z,4.25
2019-03-25T00:36:49.285Z,4.80
2019-03-25T00:39:09.179Z,5.03
2019-03-25T00:41:28.910Z,4.87
2019-03-25T00:43:48.631Z,3.47
2019-03-25T00:46:08.343Z,4.75
2019-03-25T00:48:28.147Z,4.60
2019-03-25T00:50:48.130Z,4.70
2019-03-25T00:53:07.965Z,5.20
2019-03-25T00:55:27.943Z,4.50
2019-03-25T00:57:47.941Z,4.87
2019-03-25T01:00:08.490Z,4.80
2019-03-25T01:02:28.613Z,4.80
2019-03-25T01:04:48.511Z,4.20
2019-03-25T01:07:08.281Z,4.67
2019-03-25T01:09:28.152Z,4.70
2019-03-25T01:11:49.384Z,4.92
2019-03-25T01:14:09.600Z,5.00
2019-03-25T01:16:29.297Z,4.20
2019-03-25T01:18:48.950Z,4.12
2019-03-25T01:21:08.706Z,3.72
2019-03-25T01:23:28.518Z,4.10
2019-03-25T01:25:48.222Z,4.15
2019-03-25T01:28:08.071Z,3.85
2019-03-25T01:30:27.855Z,4.22
2019-03-25T01:32:47.685Z,4.65
2019-03-25T01:35:07.779Z,3.60
2019-03-25T01:37:48.911Z,4.72
2019-03-25T01:40:49.965Z,4.80
2019-03-25T01:43:31.131Z,4.62
2019-03-25T01:46:12.272Z,3.52
2019-03-25T01:48:53.473Z,5.10
2019-03-25T01:51:34.628Z,3.95
2019-03-25T01:54:15.762Z,4.78
2019-03-25T01:56:56.927Z,4.78
2019-03-25T01:59:16.941Z,4.00
2019-03-25T02:01:36.873Z,3.92
2019-03-25T02:03:56.836Z,3.80
2019-03-25T02:06:16.700Z,4.28
2019-03-25T02:08:36.658Z,4.37
2019-03-25T02:10:56.949Z,5.12
2019-03-25T02:13:16.850Z,4.53
2019-03-25T02:15:36.651Z,5.67
2019-03-25T02:17:56.459Z,4.17
2019-03-25T02:20:25.971Z,4.45
2019-03-25T02:22:37.913Z,4.78
2019-03-25T02:24:58.002Z,4.87
2019-03-25T02:27:17.693Z,5.45
2019-03-25T02:29:37.380Z,3.58
2019-03-25T02:31:57.120Z,4.25
2019-03-25T02:34:16.879Z,3.95
2019-03-25T02:36:36.739Z,3.70
2019-03-25T02:38:56.545Z,5.72
2019-03-25T02:41:18.670Z,5.60
2019-03-25T02:43:38.297Z,4.45
2019-03-25T02:45:57.987Z,4.80
2019-03-25T02:48:17.759Z,3.75
2019-03-25T02:50:37.483Z,4.90
2019-03-25T02:52:57.177Z,5.85
2019-03-25T02:55:16.875Z,5.30
2019-03-25T02:57:36.861Z,5.53
2019-03-25T02:59:57.189Z,4.15
2019-03-25T03:02:17.064Z,5.30
2019-03-25T03:04:37.000Z,4.80
2019-03-25T03:06:57.015Z,4.80
2019-03-25T03:09:16.925Z,4.95
2019-03-25T03:11:37.429Z,5.10
2019-03-25T03:13:57.564Z,5.30
2019-03-25T03:16:17.289Z,5.15
2019-03-25T03:18:37.040Z,4.35
2019-03-25T03:20:56.700Z,5.25
2019-03-25T03:23:16.444Z,4.83
2019-03-25T03:25:36.242Z,5.42
2019-03-25T03:27:56.045Z,5.00
2019-03-25T03:30:15.947Z,5.70
2019-03-25T03:32:36.131Z,5.40
2019-03-25T03:34:55.778Z,5.72
2019-03-25T03:37:15.538Z,5.40
2019-03-25T03:39:35.325Z,5.65
2019-03-25T03:41:55.270Z,6.08
2019-03-25T03:44:15.559Z,6.50
2019-03-25T03:46:35.523Z,6.25
2019-03-25T03:48:55.377Z,5.90
2019-03-25T03:51:15.330Z,6.78
2019-03-25T03:53:35.517Z,6.70
2019-03-25T03:56:11.506Z,6.65
2019-03-25T03:58:18.003Z,6.25
2019-03-25T04:00:38.359Z,6.42
2019-03-25T04:02:59.085Z,6.45
2019-03-25T04:05:19.138Z,6.67
2019-03-25T04:07:39.004Z,5.72
2019-03-25T04:09:58.940Z,6.00
2019-03-25T04:12:18.900Z,5.30
2019-03-25T04:14:38.771Z,5.62
2019-03-25T04:16:58.650Z,6.22
2019-03-25T04:19:18.466Z,5.47
2019-03-25T04:21:38.257Z,6.55
2019-03-25T04:23:57.921Z,6.20
2019-03-25T04:26:28.171Z,6.37
2019-03-25T04:28:39.368Z,6.15
2019-03-25T04:31:00.084Z,5.65
2019-03-25T04:33:19.920Z,5.60
2019-03-25T04:35:39.787Z,6.05
2019-03-25T04:37:59.716Z,6.58
2019-03-25T04:40:19.947Z,6.22
2019-03-25T04:42:39.790Z,6.80
2019-03-25T04:44:59.603Z,6.87
2019-03-25T04:47:19.333Z,6.58
2019-03-25T04:49:39.052Z,6.97
2019-03-25T04:51:58.959Z,7.22
2019-03-25T04:54:18.761Z,7.00
2019-03-25T04:56:39.963Z,6.62
2019-03-25T04:59:00.095Z,5.75
2019-03-25T05:01:19.866Z,5.95
2019-03-25T05:03:39.738Z,6.12
2019-03-25T05:05:59.601Z,6.15
2019-03-25T05:08:19.597Z,6.12
2019-03-25T05:10:39.730Z,6.72
2019-03-25T05:12:59.620Z,6.28
2019-03-25T05:15:19.608Z,5.28
2019-03-25T05:17:39.447Z,5.08
2019-03-25T05:19:59.198Z,6.47
2019-03-25T05:22:19.031Z,5.30
2019-03-25T05:24:38.940Z,5.10
2019-03-25T05:26:58.682Z,5.12
2019-03-25T05:29:18.378Z,4.92
2019-03-25T05:31:38.250Z,4.30
2019-03-25T05:33:58.051Z,4.58
2019-03-25T05:36:17.988Z,4.35
2019-03-25T05:38:37.769Z,4.90
2019-03-25T05:40:57.768Z,4.35
2019-03-25T05:43:17.551Z,4.20
2019-03-25T05:45:37.375Z,4.75
2019-03-25T05:47:57.197Z,4.72
2019-03-25T05:50:16.964Z,4.58
2019-03-25T05:52:36.721Z,5.00
2019-03-25T05:54:56.657Z,3.70
2019-03-25T05:57:16.564Z,4.12
2019-03-25T05:59:36.625Z,5.95
2019-03-25T06:01:56.442Z,4.85
2019-03-25T06:04:16.376Z,6.05
2019-03-25T06:06:36.271Z,6.03
2019-03-25T06:08:55.993Z,6.72
2019-03-25T06:11:15.719Z,5.75
2019-03-25T06:13:35.353Z,6.58
2019-03-25T06:15:55.231Z,7.58
2019-03-25T06:18:15.055Z,8.58
2019-03-25T06:20:34.698Z,8.23
2019-03-25T06:22:54.622Z,7.80
2019-03-25T06:25:14.406Z,8.93
2019-03-25T06:27:34.191Z,9.10
2019-03-25T06:29:53.952Z,8.03
2019-03-25T06:32:13.785Z,8.60
2019-03-25T06:34:33.572Z,9.13
2019-03-25T06:36:53.382Z,10.20
2019-03-25T06:39:13.302Z,13.58
2019-03-25T06:41:33.122Z,12.28
2019-03-25T06:43:53.207Z,11.65
2019-03-25T06:46:13.139Z,11.15
2019-03-25T06:48:33.085Z,10.93
2019-03-25T06:50:52.963Z,12.18
2019-03-25T06:53:12.733Z,11.70
2019-03-25T06:55:32.488Z,10.25
2019-03-25T06:57:52.232Z,12.53
2019-03-25T07:00:12.450Z,11.70
2019-03-25T07:02:32.187Z,13.20
2019-03-25T07:04:51.992Z,10.60
2019-03-25T07:07:11.749Z,11.55
2019-03-25T07:09:31.546Z,12.35
2019-03-25T07:11:51.396Z,13.72
2019-03-25T07:14:11.281Z,14.28
2019-03-25T07:16:31.188Z,11.33
2019-03-25T07:18:51.040Z,13.28
2019-03-25T07:21:10.791Z,10.78
2019-03-25T07:23:30.669Z,12.13
2019-03-25T07:25:50.488Z,11.35
2019-03-25T07:28:10.317Z,13.72
2019-03-25T07:30:30.258Z,13.50
2019-03-25T07:32:50.306Z,12.98
2019-03-25T07:35:10.427Z,13.60
2019-03-25T07:37:30.562Z,13.72
2019-03-25T07:39:50.442Z,12.85
2019-03-25T07:42:10.251Z,13.05
2019-03-25T07:44:29.979Z,13.60
2019-03-25T07:46:49.835Z,14.20
2019-03-25T07:49:09.530Z,14.60
2019-03-25T07:51:29.309Z,14.80
2019-03-25T07:53:50.978Z,15.90
2019-03-25T07:56:10.683Z,14.47
2019-03-25T07:58:30.400Z,13.72
2019-03-25T08:00:50.898Z,15.40
2019-03-25T08:03:11.067Z,16.67
2019-03-25T08:05:30.750Z,14.05
2019-03-25T08:07:50.532Z,14.33
2019-03-25T08:10:10.426Z,13.53
2019-03-25T08:12:30.670Z,13.78
2019-03-25T08:14:50.480Z,13.65
2019-03-25T08:17:10.242Z,13.20
2019-03-25T08:19:30.090Z,13.40
2019-03-25T08:21:49.867Z,12.60
2019-03-25T08:24:09.686Z,11.50
2019-03-25T08:26:29.585Z,12.90
2019-03-25T08:28:49.627Z,13.83
2019-03-25T08:31:09.655Z,13.38
2019-03-25T08:33:29.631Z,13.30
2019-03-25T08:35:49.596Z,12.47
2019-03-25T08:38:09.400Z,10.95
2019-03-25T08:40:29.586Z,10.70
2019-03-25T08:42:49.345Z,10.23
2019-03-25T08:45:09.523Z,10.23
2019-03-25T08:47:29.427Z,11.80
2019-03-25T08:49:49.085Z,12.20
2019-03-25T08:52:08.875Z,10.63
2019-03-25T08:54:28.850Z,10.10
2019-03-25T08:56:48.916Z,10.18
2019-03-25T08:59:08.769Z,10.60
2019-03-25T09:01:28.691Z,10.00
2019-03-25T09:03:49.014Z,10.10
2019-03-25T09:06:08.709Z,9.25
2019-03-25T09:08:28.414Z,9.35
2019-03-25T09:10:48.350Z,8.70
2019-03-25T09:13:08.185Z,7.58
2019-03-25T09:15:27.992Z,7.58
2019-03-25T09:17:48.038Z,8.30
2019-03-25T09:20:08.623Z,8.40
2019-03-25T09:22:28.788Z,7.45
2019-03-25T09:24:48.771Z,6.42
2019-03-25T09:27:08.851Z,7.75
2019-03-25T09:29:28.714Z,5.75
2019-03-25T09:31:48.616Z,6.08
2019-03-25T09:34:08.565Z,5.95
2019-03-25T09:36:28.356Z,5.53
2019-03-25T09:38:48.640Z,6.17
2019-03-25T09:41:09.110Z,6.30
2019-03-25T09:43:29.359Z,5.97
2019-03-25T09:45:49.038Z,6.65
2019-03-25T09:48:08.832Z,5.30
2019-03-25T09:50:28.636Z,5.40
2019-03-25T09:52:48.385Z,4.95
2019-03-25T09:55:08.508Z,6.67
2019-03-25T09:57:28.473Z,4.50
2019-03-25T09:59:48.190Z,5.60
2019-03-25T10:02:07.996Z,5.00
2019-03-25T10:04:27.764Z,4.63
2019-03-25T10:06:47.773Z,4.20
2019-03-25T10:09:09.292Z,5.20
2019-03-25T10:11:29.307Z,3.80
2019-03-25T10:13:49.061Z,4.47
2019-03-25T10:16:08.903Z,3.90
2019-03-25T10:18:28.848Z,3.10
2019-03-25T10:20:48.835Z,3.60
2019-03-25T10:23:09.060Z,2.55
2019-03-25T10:25:28.957Z,2.80
2019-03-25T10:27:48.939Z,3.00
2019-03-25T10:30:12.649Z,2.90
2019-03-25T10:32:32.725Z,3.20
2019-03-25T10:34:52.742Z,3.10
2019-03-25T10:37:12.637Z,3.83
2019-03-25T10:39:32.516Z,2.73
2019-03-25T10:41:52.719Z,2.80
2019-03-25T10:44:12.704Z,2.80
2019-03-25T10:46:32.509Z,2.90
2019-03-25T10:48:52.292Z,2.73
2019-03-25T10:51:11.967Z,2.40
2019-03-25T10:53:31.789Z,2.20
2019-03-25T10:55:51.559Z,2.90
2019-03-25T10:58:11.551Z,2.87
2019-03-25T11:00:31.567Z,2.30
2019-03-25T11:02:51.479Z,2.20
2019-03-25T11:05:12.919Z,2.53
2019-03-25T11:07:33.160Z,2.27
2019-03-25T11:09:53.356Z,1.67
2019-03-25T11:12:13.127Z,2.00
2019-03-25T11:14:32.910Z,1.40
2019-03-25T11:16:52.834Z,1.70
2019-03-25T11:19:15.693Z,2.00
2019-03-25T11:21:35.533Z,1.73
2019-03-25T11:23:55.262Z,2.20
2019-03-25T11:26:15.216Z,2.10
2019-03-25T11:28:35.481Z,1.83
2019-03-25T11:30:57.059Z,2.00
2019-03-25T11:33:17.279Z,1.70
2019-03-25T11:35:37.527Z,2.27
2019-03-25T11:37:57.395Z,1.13
2019-03-25T11:40:17.464Z,1.20
2019-03-25T11:42:37.605Z,1.52
2019-03-25T11:44:57.272Z,2.50
2019-03-25T11:47:17.088Z,2.00
2019-03-25T11:49:37.038Z,1.80
2019-03-25T11:51:56.979Z,2.47
2019-03-25T11:54:17.050Z,3.07
2019-03-25T11:56:36.947Z,2.50
2019-03-25T11:58:56.933Z,3.07
2019-03-25T12:01:16.713Z,1.93
2019-03-25T12:03:36.707Z,1.70
2019-03-25T12:05:56.786Z,1.97
2019-03-25T12:08:16.585Z,1.40
2019-03-25T12:10:37.040Z,1.73
2019-03-25T12:12:56.949Z,1.90
2019-03-25T12:15:16.701Z,1.90
2019-03-25T12:17:36.941Z,1.37
2019-03-25T12:19:56.628Z,1.97
2019-03-25T12:22:16.344Z,1.77
2019-03-25T12:24:36.069Z,1.87
2019-03-25T12:26:55.872Z,2.80
2019-03-25T12:29:15.676Z,2.27
2019-03-25T12:31:35.337Z,2.00
2019-03-25T12:33:55.099Z,2.37
2019-03-25T12:36:14.857Z,2.03
2019-03-25T12:38:34.750Z,2.10
2019-03-25T12:40:54.701Z,1.93
2019-03-25T12:43:14.537Z,1.97
2019-03-25T12:45:34.393Z,1.57
2019-03-25T12:47:54.347Z,1.97
2019-03-25T12:50:14.451Z,2.70
2019-03-25T12:52:34.381Z,2.07
2019-03-25T12:54:54.170Z,1.90
2019-03-25T12:57:13.953Z,2.70
2019-03-25T12:59:41.158Z,2.37
2019-03-25T13:01:55.447Z,2.67
2019-03-25T13:04:35.090Z,2.10
2019-03-25T13:07:16.229Z,2.30
2019-03-25T13:09:57.681Z,2.17
2019-03-25T13:12:38.821Z,2.40
2019-03-25T13:15:19.997Z,2.00
2019-03-25T13:18:01.146Z,1.43
2019-03-25T13:20:42.326Z,1.50
2019-03-25T13:23:23.472Z,1.53
2019-03-25T13:25:57.849Z,1.70
2019-03-25T13:28:39.052Z,1.40
2019-03-25T13:31:20.191Z,2.00
2019-03-25T13:34:01.364Z,1.90
2019-03-25T13:36:22.653Z,1.70
2019-03-25T13:38:42.790Z,2.27
2019-03-25T13:41:02.632Z,1.73
2019-03-25T13:43:23.004Z,2.00
2019-03-25T13:45:42.683Z,2.17
2019-03-25T13:48:02.597Z,1.87
2019-03-25T13:50:22.283Z,1.97
2019-03-25T13:52:42.008Z,2.20
2019-03-25T13:55:03.082Z,2.20
2019-03-25T13:57:22.853Z,1.80
2019-03-25T13:59:42.991Z,1.90
2019-03-25T14:02:03.820Z,1.80
2019-03-25T14:04:23.970Z,2.57
2019-03-25T14:06:43.921Z,2.10
2019-03-25T14:09:06.187Z,2.07
2019-03-25T14:11:26.077Z,1.30
2019-03-25T14:13:49.470Z,1.20
2019-03-25T14:16:07.962Z,1.63
2019-03-25T14:18:27.876Z,1.30
2019-03-25T14:20:47.739Z,1.13
2019-03-25T14:23:07.693Z,0.70
2019-03-25T14:25:27.663Z,1.30
2019-03-25T14:27:47.766Z,0.70
2019-03-25T14:30:14.560Z,0.97
2019-03-25T14:32:30.783Z,2.00
2019-03-25T14:34:50.784Z,0.90
2019-03-25T14:37:10.684Z,1.10
2019-03-25T14:39:30.647Z,1.00
2019-03-25T14:41:50.580Z,1.20
2019-03-25T14:44:10.413Z,0.63
2019-03-25T14:46:30.136Z,1.00
2019-03-25T14:48:50.102Z,1.30
2019-03-25T14:51:09.906Z,1.10
2019-03-25T14:53:29.640Z,0.70
2019-03-25T14:55:49.441Z,0.93
2019-03-25T14:58:09.216Z,0.83
2019-03-25T15:00:29.030Z,1.07
2019-03-25T15:02:49.134Z,0.67
2019-03-25T15:05:10.042Z,0.83
2019-03-25T15:07:30.144Z,0.80
2019-03-25T15:09:49.962Z,0.90
2019-03-25T15:12:09.922Z,1.00
2019-03-25T15:14:29.715Z,1.03
2019-03-25T15:16:49.594Z,1.00
2019-03-25T15:19:09.428Z,0.70
2019-03-25T15:21:29.295Z,0.77
2019-03-25T15:23:49.219Z,1.47
2019-03-25T15:26:09.296Z,1.30
2019-03-25T15:28:29.584Z,1.40
2019-03-25T15:30:49.668Z,1.23
2019-03-25T15:33:09.683Z,1.40
2019-03-25T15:35:29.647Z,1.23
2019-03-25T15:37:49.442Z,2.10
2019-03-25T15:40:13.657Z,0.90
2019-03-25T15:42:33.667Z,1.43
2019-03-25T15:44:53.770Z,0.83
2019-03-25T15:47:14.313Z,0.87
2019-03-25T15:49:34.940Z,1.80
2019-03-25T15:51:54.962Z,1.27
2019-03-25T15:54:14.944Z,1.20
2019-03-25T15:56:34.954Z,0.70
2019-03-25T15:58:54.701Z,7.07
2019-03-25T16:01:14.355Z,0.80
2019-03-25T16:03:34.056Z,1.17
2019-03-25T16:05:53.734Z,1.37
2019-03-25T16:08:13.530Z,1.03
2019-03-25T16:10:33.976Z,1.50
2019-03-25T16:12:54.279Z,1.70
2019-03-25T16:15:22.736Z,0.77
2019-03-25T16:17:43.313Z,0.97
2019-03-25T16:20:07.705Z,0.90
2019-03-25T16:22:27.855Z,1.83
2019-03-25T16:24:47.739Z,2.80
2019-03-25T16:27:08.007Z,0.90
2019-03-25T16:29:27.831Z,0.97
2019-03-25T16:31:47.621Z,3.90
2019-03-25T16:34:07.358Z,3.03
2019-03-25T16:36:27.340Z,2.20
2019-03-25T16:38:47.259Z,5.60
2019-03-25T16:41:07.272Z,1.47
2019-03-25T16:43:27.114Z,1.60
2019-03-25T16:45:46.894Z,1.23
2019-03-25T16:48:06.623Z,1.10
2019-03-25T16:50:26.448Z,1.10
2019-03-25T16:52:46.356Z,1.40
2019-03-25T16:55:06.572Z,6.27
2019-03-25T16:57:26.300Z,1.47
2019-03-25T16:59:46.066Z,2.17
2019-03-25T17:02:06.002Z,1.70
2019-03-25T17:04:26.131Z,1.37
2019-03-25T17:06:45.877Z,1.27
2019-03-25T17:09:06.110Z,1.00
2019-03-25T17:11:26.124Z,1.70
2019-03-25T17:13:46.037Z,1.70
2019-03-25T17:16:06.227Z,1.70
2019-03-25T17:18:26.038Z,1.70
2019-03-25T17:20:45.734Z,2.03
2019-03-25T17:23:05.593Z,1.40
2019-03-25T17:25:25.491Z,2.17
2019-03-25T17:27:45.320Z,1.83
2019-03-25T17:30:12.783Z,1.73
2019-03-25T17:32:32.719Z,1.63
2019-03-25T17:34:52.811Z,1.70
2019-03-25T17:37:12.939Z,2.40
2019-03-25T17:39:32.677Z,1.73
2019-03-25T17:41:52.571Z,1.57
2019-03-25T17:44:12.811Z,1.53
2019-03-25T17:46:32.583Z,1.47
2019-03-25T17:48:52.502Z,1.97
2019-03-25T17:51:12.345Z,1.40
2019-03-25T17:53:32.353Z,1.73
2019-03-25T17:55:52.245Z,1.90
2019-03-25T17:58:12.207Z,1.77
2019-03-25T18:00:43.418Z,1.73
2019-03-25T18:03:10.971Z,1.93
2019-03-25T18:05:25.399Z,2.50
2019-03-25T18:07:45.210Z,3.10
2019-03-25T18:10:06.524Z,3.87
2019-03-25T18:12:26.244Z,1.80
2019-03-25T18:14:45.888Z,2.13
2019-03-25T18:17:05.680Z,2.03
2019-03-25T18:19:25.459Z,1.60
2019-03-25T18:21:45.308Z,1.40
2019-03-25T18:24:05.154Z,1.80
2019-03-25T18:26:25.010Z,2.40
2019-03-25T18:28:45.171Z,1.60
2019-03-25T18:31:05.119Z,1.60
2019-03-25T18:33:25.105Z,2.00
2019-03-25T18:35:44.831Z,1.87
2019-03-25T18:38:04.862Z,1.77
2019-03-25T18:40:24.995Z,3.83
2019-03-25T18:42:45.293Z,1.97
2019-03-25T18:45:05.611Z,1.83
2019-03-25T18:47:26.023Z,1.80
2019-03-25T18:49:45.932Z,1.80
2019-03-25T18:52:05.856Z,3.30
2019-03-25T18:54:25.815Z,2.17
2019-03-25T18:56:45.621Z,1.70
2019-03-25T18:59:05.844Z,2.03
2019-03-25T19:01:26.354Z,1.90
2019-03-25T19:03:46.417Z,2.53
2019-03-25T19:06:06.256Z,2.70
2019-03-25T19:08:26.298Z,2.23
2019-03-25T19:10:46.250Z,2.57
2019-03-25T19:13:06.485Z,2.77
2019-03-25T19:15:26.435Z,2.20
2019-03-25T19:17:46.517Z,2.20
2019-03-25T19:20:06.508Z,2.33
2019-03-25T19:22:26.483Z,2.73
2019-03-25T19:24:46.231Z,2.93
2019-03-25T19:27:06.089Z,2.90
2019-03-25T19:29:26.413Z,2.43
2019-03-25T19:31:46.203Z,2.80
2019-03-25T19:34:06.002Z,3.02
2019-03-25T19:36:25.796Z,3.33
2019-03-25T19:38:45.665Z,2.60
2019-03-25T19:41:05.614Z,2.70
2019-03-25T19:43:25.836Z,2.97
2019-03-25T19:45:45.732Z,2.60
2019-03-25T19:48:06.538Z,2.95
2019-03-25T19:50:26.525Z,3.33
2019-03-25T19:52:47.049Z,2.90
2019-03-25T19:55:07.490Z,2.70
2019-03-25T19:57:28.451Z,2.70
2019-03-25T19:59:48.712Z,2.83
2019-03-25T20:02:18.522Z,2.83
2019-03-25T20:04:30.565Z,3.05
2019-03-25T20:06:50.491Z,3.10
2019-03-25T20:09:10.750Z,2.58
2019-03-25T20:11:30.511Z,3.00
2019-03-25T20:13:51.176Z,3.10
2019-03-25T20:16:11.190Z,2.98
2019-03-25T20:18:30.922Z,2.60
2019-03-25T20:20:50.579Z,1.85
2019-03-25T20:23:10.357Z,2.45
2019-03-25T20:25:30.262Z,3.00
2019-03-25T20:27:49.995Z,2.87
2019-03-25T20:30:11.377Z,2.95
2019-03-25T20:32:32.213Z,3.30
2019-03-25T20:34:52.262Z,3.35
2019-03-25T20:37:11.989Z,2.47
2019-03-25T20:39:31.730Z,2.90
2019-03-25T20:41:51.557Z,3.47
2019-03-25T20:44:11.239Z,2.52
2019-03-25T20:46:31.098Z,3.17
2019-03-25T20:48:50.817Z,3.33
2019-03-25T20:51:10.650Z,3.30
2019-03-25T20:53:30.668Z,2.95
2019-03-25T20:55:50.869Z,2.83
2019-03-25T20:58:10.852Z,2.75
2019-03-25T21:00:47.232Z,3.20
2019-03-25T21:03:07.054Z,2.42
2019-03-25T21:05:27.341Z,4.40
2019-03-25T21:07:47.903Z,3.17
2019-03-25T21:10:08.270Z,3.22
2019-03-25T21:12:28.304Z,2.70
2019-03-25T21:14:48.199Z,3.08
2019-03-25T21:17:08.153Z,3.05
2019-03-25T21:19:28.482Z,2.70
2019-03-25T21:21:48.206Z,3.72
2019-03-25T21:24:07.920Z,3.17
2019-03-25T21:26:27.733Z,2.72
2019-03-25T21:28:47.431Z,3.67
2019-03-25T21:31:07.158Z,3.25
2019-03-25T21:33:26.992Z,3.70
2019-03-25T21:35:46.864Z,2.90
2019-03-25T21:38:06.773Z,3.47
2019-03-25T21:40:26.993Z,4.58
2019-03-25T21:42:47.373Z,3.12
2019-03-25T21:45:08.173Z,2.67
2019-03-25T21:47:28.104Z,3.10
2019-03-25T21:49:47.986Z,3.85
2019-03-25T21:52:08.278Z,3.40
2019-03-25T21:54:28.027Z,3.10
2019-03-25T21:56:47.910Z,2.72
2019-03-25T21:59:07.717Z,3.35
2019-03-25T22:01:27.584Z,3.42
2019-03-25T22:03:47.597Z,3.60
2019-03-25T22:06:07.607Z,3.10
2019-03-25T22:08:27.955Z,3.08
2019-03-25T22:10:47.976Z,3.80
2019-03-25T22:13:07.895Z,4.05
2019-03-25T22:15:27.865Z,3.47
2019-03-25T22:17:47.747Z,3.60
2019-03-25T22:20:08.726Z,3.52
2019-03-25T22:22:28.355Z,3.65
2019-03-25T22:24:48.061Z,3.70
2019-03-25T22:27:08.167Z,3.15
2019-03-25T22:29:28.286Z,2.85
2019-03-25T22:31:48.016Z,3.62
2019-03-25T22:34:07.787Z,3.22
2019-03-25T22:36:27.531Z,2.95
2019-03-25T22:38:47.279Z,3.98
2019-03-25T22:41:07.109Z,4.30
2019-03-25T22:43:26.905Z,3.77
2019-03-25T22:45:46.663Z,3.77
2019-03-25T22:48:07.525Z,3.30
2019-03-25T22:50:29.770Z,3.87
2019-03-25T22:52:49.605Z,3.87
2019-03-25T22:55:09.483Z,3.98
2019-03-25T22:57:29.188Z,3.58
2019-03-25T22:59:48.991Z,3.20
2019-03-25T23:02:09.290Z,4.20
2019-03-25T23:04:29.190Z,3.62
2019-03-25T23:06:48.989Z,3.10
2019-03-25T23:09:08.926Z,4.22
2019-03-25T23:11:28.932Z,3.33
2019-03-25T23:13:48.909Z,3.65
2019-03-25T23:16:09.100Z,2.62
2019-03-25T23:18:28.919Z,3.47
2019-03-25T23:20:48.740Z,3.98
2019-03-25T23:23:08.514Z,3.60
2019-03-25T23:25:28.515Z,3.40
2019-03-25T23:27:48.334Z,3.15
2019-03-25T23:30:08.223Z,3.80
2019-03-25T23:32:28.231Z,4.85
2019-03-25T23:34:48.116Z,5.25
2019-03-25T23:37:07.936Z,5.55
2019-03-25T23:39:27.645Z,5.35
2019-03-25T23:41:47.442Z,5.90
2019-03-25T23:44:07.435Z,6.65
2019-03-25T23:46:27.152Z,6.05
2019-03-25T23:48:46.924Z,6.85
2019-03-25T23:51:06.749Z,6.72
2019-03-25T23:53:26.480Z,7.03
2019-03-25T23:55:46.424Z,7.00
2019-03-25T23:58:06.421Z,7.00
